Terminal Aerodrome Forecast
Issued by NWS

Home | Current Version | Previous Version | Text Only | Print | Product List | Glossary On
Versions: 1 2 3 4 5 6 7 8 9 10
590
FTUS45 KVEF 230520
TAFBIH
TAF
KBIH 230520Z 2306/2406 VRB05KT P6SM BKN250
     FM230800 33008KT P6SM FEW250
     FM232000 35012G20KT P6SM FEW250=

USA.gov is the U.S. government's official web portal to all federal, state and local government web resources and services.